Dades meteomassalio
Diari Summary for Setembre 17, 2017 Units:  Metric    English   Both
« Previous Day
Next Day »
Diari Semanal Mensual Anual Personalitzat
  Maxima: Minima: Mijana:
Temperatura: 22.8 °C 4.4 °C 13 °C
Rosada: 8.0 °C 1.2 °C 4.4 °C
Humitat: 90 % 32 % 60 %
Velocitat del vent: 20.4 km/h 0.0 km/h 3.3 km/h
Racha vent: 20.4 km/h - -
Vent:- - SW
Pressio: 1022.2 hPa 1018.5 hPa -
Pluja: 0.0 mm    
Historical Graphs
 
 
Tabular Data for Setembre 17, 2017
Time Temperature Dew Point Pressure Wind Wind Speed Wind Gust Humidity Rainfall Rate (Hourly) solar Conditions
00:00 10.6 °C 3.3 °C 1020.5 hPa SSW 16.7 km/h 16.7 km/h 61 % 0.0 mm 0.0 W/m2 CLR
00:05 10.6 °C 3.1 °C 1020.5 hPa SSW 16.1 km/h 16.1 km/h 60 % 0.0 mm 0.0 W/m2 CLR
00:10 10.6 °C 3.1 °C 1020.5 hPa SSW 16.7 km/h 16.7 km/h 60 % 0.0 mm 0.0 W/m2 CLR
00:15 10.6 °C 3.1 °C 1020.5 hPa SSW 14.8 km/h 14.8 km/h 60 % 0.0 mm 0.0 W/m2 CLR
00:20 10.6 °C 3.1 °C 1020.5 hPa South 16.7 km/h 16.7 km/h 60 % 0.0 mm 0.0 W/m2 CLR
00:25 10.6 °C 3.1 °C 1020.5 hPa South 13.0 km/h 13.0 km/h 60 % 0.0 mm 0.0 W/m2 CLR
00:30 10.0 °C 2.6 °C 1020.5 hPa SSW 16.7 km/h 16.7 km/h 60 % 0.0 mm 0.0 W/m2 CLR
00:35 10.0 °C 2.6 °C 1020.5 hPa South 13.0 km/h 13.0 km/h 60 % 0.0 mm 0.0 W/m2 CLR
00:40 9.4 °C 2.1 °C 1020.5 hPa SSW 16.7 km/h 16.7 km/h 60 % 0.0 mm 0.0 W/m2 CLR
00:45 9.4 °C 2.1 °C 1020.9 hPa SSW 14.8 km/h 14.8 km/h 60 % 0.0 mm 0.0 W/m2 CLR
00:50 8.9 °C 1.6 °C 1020.9 hPa SSW 14.8 km/h 14.8 km/h 60 % 0.0 mm 0.0 W/m2 CLR
00:55 8.9 °C 1.6 °C 1020.9 hPa SSW 11.3 km/h 11.3 km/h 60 % 0.0 mm 0.0 W/m2 CLR
01:00 8.3 °C 1.2 °C 1020.9 hPa SSE 11.1 km/h 11.1 km/h 61 % 0.0 mm 0.0 W/m2 CLR
01:05 8.3 °C 1.7 °C 1020.9 hPa SSE 11.1 km/h 11.1 km/h 63 % 0.0 mm 0.0 W/m2 CLR
01:10 8.3 °C 2.1 °C 1020.9 hPa South 7.4 km/h 7.4 km/h 65 % 0.0 mm 0.0 W/m2 CLR
01:15 8.3 °C 2.3 °C 1020.9 hPa South 6.4 km/h 6.4 km/h 66 % 0.0 mm 0.0 W/m2 CLR
01:20 8.3 °C 2.6 °C 1020.5 hPa South 11.1 km/h 11.1 km/h 67 % 0.0 mm 0.0 W/m2 CLR
01:25 8.3 °C 2.6 °C 1020.5 hPa Calm     67 % 0.0 mm 0.0 W/m2 CLR
01:30 8.3 °C 2.8 °C 1020.5 hPa South 12.9 km/h 12.9 km/h 68 % 0.0 mm 0.0 W/m2 CLR
01:35 7.8 °C 2.2 °C 1020.5 hPa South 9.3 km/h 9.3 km/h 68 % 0.0 mm 0.0 W/m2 CLR
01:40 7.8 °C 2.2 °C 1020.5 hPa Calm     68 % 0.0 mm 0.0 W/m2 CLR
01:45 7.8 °C 2.4 °C 1020.5 hPa South 6.4 km/h 6.4 km/h 69 % 0.0 mm 0.0 W/m2 CLR
01:50 7.8 °C 2.7 °C 1020.5 hPa SSE 9.3 km/h 9.3 km/h 70 % 0.0 mm 0.0 W/m2 CLR
01:55 7.8 °C 2.8 °C 1020.5 hPa South 13.0 km/h 13.0 km/h 71 % 0.0 mm 0.0 W/m2 CLR
02:00 7.8 °C 2.8 °C 1020.5 hPa South 13.0 km/h 13.0 km/h 71 % 0.0 mm 0.0 W/m2 CLR
02:05 8.3 °C 3.4 °C 1020.9 hPa SSE 14.8 km/h 14.8 km/h 71 % 0.0 mm 0.0 W/m2 CLR
02:10 8.3 °C 3.2 °C 1020.5 hPa South 16.7 km/h 16.7 km/h 70 % 0.0 mm 0.0 W/m2 CLR
02:15 8.3 °C 3.2 °C 1020.5 hPa South 16.7 km/h 16.7 km/h 70 % 0.0 mm 0.0 W/m2 CLR
02:20 8.3 °C 3.2 °C 1020.5 hPa SSE 14.8 km/h 14.8 km/h 70 % 0.0 mm 0.0 W/m2 CLR
02:25 8.3 °C 3.0 °C 1020.5 hPa SSE 18.5 km/h 18.5 km/h 69 % 0.0 mm 0.0 W/m2 CLR
02:30 7.8 °C 2.4 °C 1020.5 hPa South 13.0 km/h 13.0 km/h 69 % 0.0 mm 0.0 W/m2 CLR
02:35 7.8 °C 2.4 °C 1020.5 hPa South 14.8 km/h 14.8 km/h 69 % 0.0 mm 0.0 W/m2 CLR
02:40 8.3 °C 3.0 °C 1020.5 hPa South 9.3 km/h 9.3 km/h 69 % 0.0 mm 0.0 W/m2 CLR
02:45 8.3 °C 3.0 °C 1020.5 hPa SSE 11.1 km/h 11.1 km/h 69 % 0.0 mm 0.0 W/m2 CLR
02:50 8.3 °C 3.2 °C 1020.5 hPa Calm     70 % 0.0 mm 0.0 W/m2 CLR
02:55 7.8 °C 2.8 °C 1020.5 hPa Calm     71 % 0.0 mm 0.0 W/m2 CLR
03:00 7.8 °C 3.1 °C 1020.5 hPa Calm     72 % 0.0 mm 0.0 W/m2 CLR
03:05 7.2 °C 2.7 °C 1020.5 hPa Calm     73 % 0.0 mm 0.0 W/m2 CLR
03:10 7.2 °C 2.9 °C 1020.5 hPa Calm     74 % 0.0 mm 0.0 W/m2 CLR
03:15 7.2 °C 3.1 °C 1020.9 hPa Calm     75 % 0.0 mm 0.0 W/m2 CLR
03:20 7.2 °C 3.1 °C 1020.9 hPa Calm     75 % 0.0 mm 0.0 W/m2 CLR
03:25 7.2 °C 3.3 °C 1020.9 hPa Calm     76 % 0.0 mm 0.0 W/m2 CLR
03:30 7.2 °C 3.4 °C 1020.5 hPa Calm     77 % 0.0 mm 0.0 W/m2 CLR
03:35 7.2 °C 3.4 °C 1020.9 hPa Calm     77 % 0.0 mm 0.0 W/m2 CLR
03:40 6.7 °C 2.9 °C 1020.9 hPa Calm     77 % 0.0 mm 0.0 W/m2 CLR
03:45 6.7 °C 2.9 °C 1020.9 hPa Calm     77 % 0.0 mm 0.0 W/m2 CLR
04:00 6.1 °C 2.6 °C 1020.9 hPa Calm     78 % 0.0 mm 0.0 W/m2 CLR
04:05 6.1 °C 2.7 °C 1020.9 hPa Calm     79 % 0.0 mm 0.0 W/m2 CLR
04:10 6.1 °C 2.7 °C 1020.9 hPa Calm     79 % 0.0 mm 0.0 W/m2 CLR
04:15 6.1 °C 2.7 °C 1021.2 hPa Calm     79 % 0.0 mm 0.0 W/m2 CLR
04:20 5.6 °C 2.2 °C 1021.2 hPa Calm     79 % 0.0 mm 0.0 W/m2 CLR
04:25 5.6 °C 2.4 °C 1021.2 hPa Calm     80 % 0.0 mm 0.0 W/m2 CLR
04:30 5.6 °C 2.2 °C 1021.2 hPa Calm     79 % 0.0 mm 0.0 W/m2 CLR
04:35 5.6 °C 2.4 °C 1021.2 hPa Calm     80 % 0.0 mm 0.0 W/m2 CLR
04:45 5.0 °C 1.8 °C 1021.2 hPa Calm     80 % 0.0 mm 0.0 W/m2 CLR
04:50 5.0 °C 1.8 °C 1020.9 hPa Calm     80 % 0.0 mm 0.0 W/m2 CLR
04:55 5.0 °C 2.0 °C 1020.9 hPa Calm     81 % 0.0 mm 0.0 W/m2 CLR
05:00 5.0 °C 2.0 °C 1020.9 hPa Calm     81 % 0.0 mm 0.0 W/m2 CLR
05:05 5.0 °C 2.2 °C 1020.9 hPa Calm     82 % 0.0 mm 0.0 W/m2 CLR
05:10 5.0 °C 2.2 °C 1020.9 hPa Calm     82 % 0.0 mm 0.0 W/m2 CLR
05:16 5.0 °C 2.2 °C 1020.9 hPa Calm     82 % 0.0 mm 0.0 W/m2 CLR
05:21 5.0 °C 2.3 °C 1020.9 hPa Calm     83 % 0.0 mm 0.0 W/m2 CLR
05:23 5.0 °C 2.3 °C 1020.9 hPa Calm     83 % 0.0 mm 0.0 W/m2 CLR
05:26 5.0 °C 2.3 °C 1020.9 hPa Calm     83 % 0.0 mm 0.0 W/m2 CLR
05:29 5.0 °C 2.3 °C 1020.9 hPa Calm     83 % 0.0 mm 0.0 W/m2 CLR
05:34 5.0 °C 2.5 °C 1020.9 hPa Calm     84 % 0.0 mm 0.0 W/m2 CLR
05:39 5.0 °C 2.5 °C 1020.9 hPa Calm     84 % 0.0 mm 0.0 W/m2 CLR
05:44 5.0 °C 2.5 °C 1020.9 hPa Calm     84 % 0.0 mm 0.0 W/m2 CLR
05:49 5.0 °C 2.5 °C 1020.9 hPa Calm     84 % 0.0 mm 0.0 W/m2 CLR
05:54 5.0 °C 2.7 °C 1020.9 hPa Calm     85 % 0.0 mm 0.0 W/m2 CLR
05:59 5.0 °C 2.7 °C 1020.9 hPa Calm     85 % 0.0 mm 0.0 W/m2 CLR
06:04 5.0 °C 2.7 °C 1020.5 hPa Calm     85 % 0.0 mm 0.0 W/m2 CLR
06:09 5.0 °C 2.8 °C 1020.9 hPa Calm     86 % 0.0 mm 0.0 W/m2 CLR
06:14 5.0 °C 2.8 °C 1020.9 hPa Calm     86 % 0.0 mm 0.0 W/m2 CLR
06:19 5.0 °C 2.8 °C 1020.9 hPa Calm     86 % 0.0 mm 0.0 W/m2 CLR
06:24 5.0 °C 2.8 °C 1020.9 hPa Calm     86 % 0.0 mm 0.0 W/m2 CLR
06:29 5.0 °C 3.0 °C 1020.9 hPa Calm     87 % 0.0 mm 0.0 W/m2 CLR
06:34 5.0 °C 3.0 °C 1020.9 hPa Calm     87 % 0.0 mm 0.0 W/m2 CLR
06:39 5.0 °C 3.0 °C 1020.5 hPa Calm     87 % 0.0 mm 0.0 W/m2 CLR
06:44 5.0 °C 3.2 °C 1020.9 hPa Calm     88 % 0.0 mm 0.0 W/m2 CLR
06:49 5.0 °C 3.2 °C 1020.9 hPa Calm     88 % 0.0 mm 0.0 W/m2 CLR
06:51 5.0 °C 3.2 °C 1020.9 hPa Calm     88 % 0.0 mm 0.0 W/m2 CLR
06:56 5.0 °C 3.2 °C 1020.9 hPa Calm     88 % 0.0 mm 0.0 W/m2 CLR
07:01 5.0 °C 3.2 °C 1020.9 hPa Calm     88 % 0.0 mm 0.0 W/m2 CLR
07:06 5.0 °C 3.2 °C 1020.9 hPa Calm     88 % 0.0 mm 0.0 W/m2 CLR
07:11 5.0 °C 3.2 °C 1021.2 hPa Calm     88 % 0.0 mm 0.0 W/m2 CLR
07:21 5.0 °C 3.2 °C 1021.2 hPa Calm     88 % 0.0 mm 0.0 W/m2 CLR
07:26 5.0 °C 3.3 °C 1021.2 hPa Calm     89 % 0.0 mm 0.0 W/m2 CLR
07:31 5.0 °C 3.3 °C 1021.2 hPa Calm     89 % 0.0 mm 0.0 W/m2 CLR
07:36 5.0 °C 3.3 °C 1021.2 hPa Calm     89 % 0.0 mm 0.0 W/m2 OVC
07:41 5.0 °C 3.3 °C 1021.2 hPa Calm     89 % 0.0 mm 0.0 W/m2 OVC
07:46 4.4 °C 2.8 °C 1021.2 hPa Calm     89 % 0.0 mm 0.0 W/m2 OVC
07:51 5.0 °C 3.3 °C 1021.6 hPa Calm     89 % 0.0 mm 5.0 W/m2 OVC
07:56 5.0 °C 3.3 °C 1021.6 hPa Calm     89 % 0.0 mm 9.0 W/m2 BKN
08:01 5.0 °C 3.3 °C 1021.6 hPa Calm     89 % 0.0 mm 11.0 W/m2 BKN
08:06 5.0 °C 3.5 °C 1021.6 hPa Calm     90 % 0.0 mm 14.0 W/m2 BKN
08:11 4.4 °C 2.9 °C 1021.6 hPa Calm     90 % 0.0 mm 19.0 W/m2 BKN
08:16 4.4 °C 2.9 °C 1021.6 hPa Calm     90 % 0.0 mm 21.0 W/m2 BKN
08:21 4.4 °C 2.9 °C 1021.6 hPa Calm     90 % 0.0 mm 32.0 W/m2 BKN
08:26 4.4 °C 2.9 °C 1021.6 hPa Calm     90 % 0.0 mm 21.0 W/m2 BKN
08:36 4.4 °C 2.8 °C 1021.6 hPa Calm     89 % 0.0 mm 54.0 W/m2 BKN
08:41 5.0 °C 3.3 °C 1021.6 hPa Calm     89 % 0.0 mm 107.0 W/m2 CLR
08:46 5.0 °C 3.2 °C 1021.6 hPa Calm     88 % 0.0 mm 81.0 W/m2 FEW
08:51 5.6 °C 3.7 °C 1021.6 hPa Calm     88 % 0.0 mm 113.0 W/m2 CLR
08:56 5.6 °C 3.6 °C 1021.6 hPa Calm     87 % 0.0 mm 160.0 W/m2 CLR
09:06 6.7 °C 4.3 °C 1021.6 hPa Calm     85 % 0.0 mm 195.0 W/m2 CLR
09:11 6.7 °C 4.0 °C 1021.6 hPa Calm     83 % 0.0 mm 213.0 W/m2 CLR
09:16 7.2 °C 4.2 °C 1021.9 hPa Calm     81 % 0.0 mm 232.0 W/m2 CLR
09:21 7.8 °C 4.6 °C 1021.9 hPa Calm     80 % 0.0 mm 250.0 W/m2 CLR
09:26 8.3 °C 4.7 °C 1021.9 hPa Calm     78 % 0.0 mm 265.0 W/m2 CLR
09:31 8.3 °C 4.2 °C 1021.9 hPa Calm     75 % 0.0 mm 281.0 W/m2 CLR
09:36 8.9 °C 4.5 °C 1021.9 hPa Calm     74 % 0.0 mm 301.0 W/m2 CLR
09:41 9.4 °C 4.7 °C 1021.9 hPa Calm     72 % 0.0 mm 316.0 W/m2 CLR
09:46 10.0 °C 5.0 °C 1021.9 hPa Calm     71 % 0.0 mm 330.0 W/m2 CLR
09:51 10.6 °C 5.1 °C 1022.2 hPa Calm     69 % 0.0 mm 346.0 W/m2 CLR
09:56 11.1 °C 5.6 °C 1022.2 hPa Calm     69 % 0.0 mm 360.0 W/m2 CLR
10:01 11.7 °C 5.7 °C 1021.9 hPa Calm     67 % 0.0 mm 378.0 W/m2 CLR
10:06 11.7 °C 5.7 °C 1022.2 hPa Calm     67 % 0.0 mm 394.0 W/m2 CLR
10:11 12.2 °C 5.8 °C 1022.2 hPa Calm     65 % 0.0 mm 408.0 W/m2 CLR
10:16 12.8 °C 6.3 °C 1022.2 hPa Calm     65 % 0.0 mm 422.0 W/m2 CLR
10:21 12.8 °C 6.3 °C 1022.2 hPa Calm     65 % 0.0 mm 439.0 W/m2 CLR
10:26 13.3 °C 6.4 °C 1022.2 hPa Calm     63 % 0.0 mm 454.0 W/m2 CLR
10:31 13.9 °C 6.5 °C 1022.2 hPa Calm     61 % 0.0 mm 468.0 W/m2 CLR
10:36 13.9 °C 6.5 °C 1022.2 hPa Calm     61 % 0.0 mm 480.0 W/m2 CLR
10:41 14.4 °C 6.3 °C 1022.2 hPa Calm     58 % 0.0 mm 492.0 W/m2 CLR
10:46 14.4 °C 5.8 °C 1022.2 hPa Calm     56 % 0.0 mm 510.0 W/m2 CLR
10:51 14.4 °C 5.5 °C 1022.2 hPa Calm     55 % 0.0 mm 522.0 W/m2 CLR
10:56 15.0 °C 5.5 °C 1022.2 hPa Calm     53 % 0.0 mm 534.0 W/m2 CLR
11:01 15.0 °C 5.5 °C 1022.2 hPa Calm     53 % 0.0 mm 543.0 W/m2 CLR
11:07 15.6 °C 6.3 °C 1021.9 hPa Calm     54 % 0.0 mm 563.0 W/m2 CLR
11:11 15.6 °C 5.2 °C 1021.9 hPa Calm     50 % 0.0 mm 575.0 W/m2 CLR
11:16 16.1 °C 5.4 °C 1021.9 hPa Calm     49 % 0.0 mm 585.0 W/m2 CLR
11:22 16.1 °C 5.7 °C 1021.9 hPa Calm     50 % 0.0 mm 599.0 W/m2 CLR
11:27 16.1 °C 5.7 °C 1021.9 hPa Calm     50 % 0.0 mm 610.0 W/m2 CLR
11:32 16.1 °C 5.4 °C 1021.9 hPa Calm     49 % 0.0 mm 621.0 W/m2 CLR
11:37 16.7 °C 5.9 °C 1021.6 hPa Calm     49 % 0.0 mm 631.0 W/m2 CLR
11:42 17.2 °C 6.4 °C 1021.6 hPa Calm     49 % 0.0 mm 643.0 W/m2 CLR
11:47 17.2 °C 5.8 °C 1021.6 hPa Calm     47 % 0.0 mm 654.0 W/m2 CLR
11:52 17.8 °C 7.2 °C 1021.6 hPa Calm     50 % 0.0 mm 663.0 W/m2 CLR
11:57 18.3 °C 7.1 °C 1021.6 hPa NNW 5.6 km/h 5.6 km/h 48 % 0.0 mm 671.0 W/m2 CLR
12:02 18.3 °C 6.8 °C 1021.6 hPa NNE 1.9 km/h   47 % 0.0 mm 682.0 W/m2 CLR
12:07 18.3 °C 6.8 °C 1021.6 hPa Calm     47 % 0.0 mm 691.0 W/m2 CLR
12:12 18.9 °C 7.3 °C 1021.6 hPa Calm     47 % 0.0 mm 698.0 W/m2 CLR
12:17 18.9 °C 7.3 °C 1021.6 hPa North 3.7 km/h   47 % 0.0 mm 705.0 W/m2 CLR
12:22 18.9 °C 7.3 °C 1021.6 hPa Calm     47 % 0.0 mm 714.0 W/m2 CLR
12:27 18.9 °C 7.3 °C 1021.6 hPa Calm     47 % 0.0 mm 721.0 W/m2 CLR
12:32 18.9 °C 7.3 °C 1021.2 hPa North 5.6 km/h 5.6 km/h 47 % 0.0 mm 729.0 W/m2 CLR
12:37 19.4 °C 7.8 °C 1021.2 hPa Calm     47 % 0.0 mm 737.0 W/m2 CLR
12:42 19.4 °C 7.8 °C 1021.2 hPa NNW 3.7 km/h 3.7 km/h 47 % 0.0 mm 744.0 W/m2 CLR
12:47 19.4 °C 7.5 °C 1021.2 hPa Calm     46 % 0.0 mm 751.0 W/m2 CLR
12:52 20.0 °C 8.0 °C 1021.2 hPa NE 4.8 km/h 4.8 km/h 46 % 0.0 mm 758.0 W/m2 CLR
12:57 19.4 °C 7.2 °C 1021.2 hPa North 3.2 km/h 3.2 km/h 45 % 0.0 mm 765.0 W/m2 CLR
13:02 20.0 °C 7.7 °C 1020.9 hPa Calm     45 % 0.0 mm 735.0 W/m2 CLR
13:07 20.6 °C 7.9 °C 1020.9 hPa Calm     44 % 0.0 mm 779.0 W/m2 CLR
13:12 20.0 °C 7.4 °C 1020.9 hPa ENE 5.6 km/h 5.6 km/h 44 % 0.0 mm 691.0 W/m2 CLR
13:17 20.0 °C 7.1 °C 1020.9 hPa NW 5.6 km/h 5.6 km/h 43 % 0.0 mm 759.0 W/m2 CLR
13:22 20.6 °C 7.6 °C 1020.5 hPa NNW 1.6 km/h 1.6 km/h 43 % 0.0 mm 782.0 W/m2 CLR
13:27 20.6 °C 7.2 °C 1020.5 hPa NNW 9.3 km/h 9.3 km/h 42 % 0.0 mm 786.0 W/m2 CLR
13:32 21.1 °C 7.3 °C 1020.5 hPa NNE 3.7 km/h 3.7 km/h 41 % 0.0 mm 788.0 W/m2 CLR
13:37 21.1 °C 7.3 °C 1020.5 hPa North 5.6 km/h 5.6 km/h 41 % 0.0 mm 788.0 W/m2 CLR
13:42 21.1 °C 7.3 °C 1020.5 hPa North 5.6 km/h 5.6 km/h 41 % 0.0 mm 788.0 W/m2 CLR
13:47 21.1 °C 7.0 °C 1020.5 hPa NNE 4.8 km/h 4.8 km/h 40 % 0.0 mm 795.0 W/m2 CLR
13:52 21.1 °C 7.0 °C 1020.2 hPa NW 5.6 km/h 5.6 km/h 40 % 0.0 mm 791.0 W/m2 CLR
13:53 21.1 °C 7.0 °C 1020.2 hPa NNW 5.6 km/h 5.6 km/h 40 % 0.0 mm 791.0 W/m2 CLR
13:58 21.1 °C 7.3 °C 1020.2 hPa North 5.6 km/h 5.6 km/h 41 % 0.0 mm 784.0 W/m2 CLR
14:03 21.1 °C 6.6 °C 1020.2 hPa NE 5.6 km/h 5.6 km/h 39 % 0.0 mm 782.0 W/m2 CLR
14:08 21.7 °C 7.5 °C 1020.2 hPa North 8.0 km/h 8.0 km/h 40 % 0.0 mm 763.0 W/m2 CLR
14:13 21.7 °C 6.7 °C 1019.9 hPa ENE 7.4 km/h 7.9 km/h 38 % 0.0 mm 751.0 W/m2 CLR
14:18 22.2 °C 7.2 °C 1019.9 hPa Calm     38 % 0.0 mm 793.0 W/m2 CLR
14:23 22.8 °C 6.9 °C 1019.9 hPa NNE 7.4 km/h 7.4 km/h 36 % 0.0 mm 823.0 W/m2 CLR
14:28 21.7 °C 6.3 °C 1019.5 hPa NNE 7.4 km/h 7.4 km/h 37 % 0.0 mm 707.0 W/m2 CLR
14:33 22.2 °C 6.4 °C 1019.5 hPa NE 3.7 km/h 3.7 km/h 36 % 0.0 mm 700.0 W/m2 CLR
14:38 21.7 °C 5.6 °C 1019.5 hPa NE 5.6 km/h 5.6 km/h 35 % 0.0 mm 673.0 W/m2 CLR
14:43 21.7 °C 5.9 °C 1019.5 hPa North 5.6 km/h 5.6 km/h 36 % 0.0 mm 752.0 W/m2 CLR
14:48 21.7 °C 5.9 °C 1019.5 hPa NNE 5.6 km/h   36 % 0.0 mm 740.0 W/m2 CLR
14:53 22.2 °C 7.2 °C 1019.5 hPa NW 13.0 km/h 13.0 km/h 38 % 0.0 mm 754.0 W/m2 CLR
14:58 22.2 °C 6.0 °C 1019.2 hPa NNW 7.4 km/h 7.4 km/h 35 % 0.0 mm 802.0 W/m2 CLR
15:03 22.2 °C 6.4 °C 1019.2 hPa Calm     36 % 0.0 mm 719.0 W/m2 CLR
15:08 22.2 °C 6.0 °C 1019.2 hPa NW 11.1 km/h 11.1 km/h 35 % 0.0 mm 671.0 W/m2 CLR
15:13 22.2 °C 6.8 °C 1019.2 hPa NW 5.6 km/h 5.6 km/h 37 % 0.0 mm 772.0 W/m2 CLR
15:18 22.2 °C 6.0 °C 1018.8 hPa NNW 14.8 km/h 14.8 km/h 35 % 0.0 mm 680.0 W/m2 CLR
15:23 22.2 °C 5.6 °C 1018.8 hPa NW 18.5 km/h 18.5 km/h 34 % 0.0 mm 770.0 W/m2 CLR
15:33 22.2 °C 5.2 °C 1018.8 hPa North 6.4 km/h 6.4 km/h 33 % 0.0 mm 756.0 W/m2 CLR
15:38 22.2 °C 5.2 °C 1018.8 hPa North 7.4 km/h 7.4 km/h 33 % 0.0 mm 621.0 W/m2 CLR
15:43 22.2 °C 5.2 °C 1018.8 hPa NNW 9.3 km/h 9.3 km/h 33 % 0.0 mm 703.0 W/m2 CLR
15:48 22.8 °C 6.1 °C 1018.8 hPa NNW 16.7 km/h 16.7 km/h 34 % 0.0 mm 631.0 W/m2 CLR
15:53 22.2 °C 5.6 °C 1018.8 hPa North 9.3 km/h 9.3 km/h 34 % 0.0 mm 668.0 W/m2 CLR
15:58 22.2 °C 6.4 °C 1018.8 hPa North 9.3 km/h 9.3 km/h 36 % 0.0 mm 687.0 W/m2 CLR
16:03 22.8 °C 6.9 °C 1018.8 hPa NW 14.8 km/h 14.8 km/h 36 % 0.0 mm 619.0 W/m2 CLR
16:08 22.2 °C 5.6 °C 1018.8 hPa NNW 14.8 km/h 14.8 km/h 34 % 0.0 mm 545.0 W/m2 CLR
16:13 21.7 °C 5.1 °C 1018.8 hPa NW 14.8 km/h 14.8 km/h 34 % 0.0 mm 283.0 W/m2 CLR
16:18 21.1 °C 4.6 °C 1018.8 hPa NW 7.4 km/h 7.4 km/h 34 % 0.0 mm 388.0 W/m2 CLR
16:23 21.7 °C 5.6 °C 1018.8 hPa NW 11.1 km/h 11.1 km/h 35 % 0.0 mm 712.0 W/m2 CLR
16:28 22.2 °C 5.2 °C 1018.5 hPa NW 20.4 km/h 20.4 km/h 33 % 0.0 mm 622.0 W/m2 CLR
16:33 22.2 °C 5.2 °C 1018.5 hPa NW 5.6 km/h 5.6 km/h 33 % 0.0 mm 640.0 W/m2 CLR
16:38 22.2 °C 5.2 °C 1018.5 hPa WNW 3.7 km/h 3.7 km/h 33 % 0.0 mm 362.0 W/m2 CLR
16:43 22.2 °C 5.2 °C 1018.5 hPa NW 9.3 km/h 9.3 km/h 33 % 0.0 mm 515.0 W/m2 CLR
16:48 22.2 °C 5.2 °C 1018.5 hPa NNW 5.6 km/h 5.6 km/h 33 % 0.0 mm 529.0 W/m2 CLR
16:53 22.2 °C 4.7 °C 1018.5 hPa NW 9.3 km/h 9.3 km/h 32 % 0.0 mm 415.0 W/m2 CLR
16:58 21.7 °C 4.2 °C 1018.5 hPa NNW 7.4 km/h 7.4 km/h 32 % 0.0 mm 253.0 W/m2 CLR
17:03 21.7 °C 5.1 °C 1018.5 hPa NNW 4.8 km/h 4.8 km/h 34 % 0.0 mm 329.0 W/m2 CLR
17:08 21.7 °C 4.7 °C 1018.5 hPa Calm     33 % 0.0 mm 262.0 W/m2 CLR
17:13 21.7 °C 4.7 °C 1018.5 hPa NNW 5.6 km/h 5.6 km/h 33 % 0.0 mm 234.0 W/m2 CLR
17:18 21.1 °C 4.2 °C 1018.5 hPa NNW 6.4 km/h 6.4 km/h 33 % 0.0 mm 213.0 W/m2 CLR
17:23 21.1 °C 4.6 °C 1018.5 hPa WNW 3.7 km/h 3.7 km/h 34 % 0.0 mm 195.0 W/m2 CLR
17:28 21.1 °C 4.2 °C 1018.5 hPa NW 5.6 km/h 5.6 km/h 33 % 0.0 mm 188.0 W/m2 CLR
17:33 21.1 °C 4.6 °C 1018.5 hPa WNW 5.6 km/h 5.6 km/h 34 % 0.0 mm 179.0 W/m2 CLR
17:38 21.1 °C 4.2 °C 1018.5 hPa NW 7.4 km/h 7.4 km/h 33 % 0.0 mm 186.0 W/m2 CLR
17:43 20.6 °C 4.1 °C 1018.5 hPa NW 9.3 km/h 9.3 km/h 34 % 0.0 mm 186.0 W/m2 CLR
17:48 20.6 °C 4.1 °C 1018.5 hPa NW 11.1 km/h 11.1 km/h 34 % 0.0 mm 144.0 W/m2 CLR
17:53 20.6 °C 4.6 °C 1018.5 hPa NW 5.6 km/h 5.6 km/h 35 % 0.0 mm 151.0 W/m2 CLR
17:58 20.6 °C 4.6 °C 1018.5 hPa NW 16.7 km/h 16.7 km/h 35 % 0.0 mm 163.0 W/m2 CLR
18:03 20.6 °C 4.9 °C 1018.5 hPa Calm     36 % 0.0 mm 158.0 W/m2 CLR
18:08 20.6 °C 4.6 °C 1018.5 hPa NW 5.6 km/h 5.6 km/h 35 % 0.0 mm 141.0 W/m2 CLR
18:13 20.6 °C 5.3 °C 1018.5 hPa NW 3.2 km/h 3.2 km/h 37 % 0.0 mm 141.0 W/m2 CLR
18:18 20.6 °C 4.9 °C 1018.5 hPa Calm   0.3 km/h 36 % 0.0 mm 179.0 W/m2 CLR
18:23 20.6 °C 5.3 °C 1018.5 hPa Calm     37 % 0.0 mm 142.0 W/m2 CLR
18:29 20.6 °C 4.9 °C 1018.5 hPa NW 5.6 km/h   36 % 0.0 mm 111.0 W/m2 CLR
18:34 20.0 °C 4.4 °C 1018.5 hPa Calm     36 % 0.0 mm 100.0 W/m2 CLR
18:39 20.0 °C 4.4 °C 1018.5 hPa WNW 5.6 km/h 5.6 km/h 36 % 0.0 mm 90.0 W/m2 CLR
18:44 20.0 °C 4.4 °C 1018.5 hPa WNW 3.7 km/h 3.7 km/h 36 % 0.0 mm 79.0 W/m2 CLR
18:49 19.4 °C 4.4 °C 1018.5 hPa WNW 5.6 km/h   37 % 0.0 mm 93.0 W/m2 FEW
18:54 19.4 °C 4.4 °C 1018.5 hPa Calm     37 % 0.0 mm 98.0 W/m2 CLR
18:59 18.9 °C 4.3 °C 1018.5 hPa Calm     38 % 0.0 mm 65.0 W/m2 CLR
19:04 18.3 °C 3.8 °C 1018.5 hPa Calm     38 % 0.0 mm 44.0 W/m2 FEW
19:09 18.3 °C 3.8 °C 1018.5 hPa Calm     38 % 0.0 mm 37.0 W/m2 BKN
19:14 17.8 °C 3.3 °C 1018.5 hPa Calm     38 % 0.0 mm 33.0 W/m2 BKN
19:19 17.2 °C 3.1 °C 1018.5 hPa Calm     39 % 0.0 mm 42.0 W/m2 BKN
19:24 16.7 °C 3.0 °C 1018.8 hPa Calm     40 % 0.0 mm 44.0 W/m2 BKN
19:29 16.1 °C 2.5 °C 1018.5 hPa Calm     40 % 0.0 mm 53.0 W/m2 SCT
19:34 16.1 °C 2.1 °C 1018.5 hPa Calm     39 % 0.0 mm 58.0 W/m2 SCT
19:39 16.1 °C 2.1 °C 1018.5 hPa Calm     39 % 0.0 mm 46.0 W/m2 SCT
19:44 16.1 °C 3.2 °C 1018.5 hPa Calm     42 % 0.0 mm 26.0 W/m2 BKN
19:49 15.6 °C 2.0 °C 1018.5 hPa Calm     40 % 0.0 mm 18.0 W/m2 BKN
19:54 15.6 °C 2.3 °C 1018.5 hPa Calm     41 % 0.0 mm 12.0 W/m2 BKN
19:59 15.0 °C 2.5 °C 1018.8 hPa Calm     43 % 0.0 mm 7.0 W/m2 BKN
20:04 15.0 °C 2.2 °C 1018.8 hPa Calm     42 % 0.0 mm 5.0 W/m2 OVC
20:09 14.4 °C 1.7 °C 1018.8 hPa Calm     42 % 0.0 mm 0.0 W/m2 OVC
20:14 14.4 °C 2.9 °C 1018.8 hPa Calm     46 % 0.0 mm 0.0 W/m2 OVC
20:19 13.9 °C 2.8 °C 1018.8 hPa Calm     47 % 0.0 mm 0.0 W/m2 CLR
20:24 13.9 °C 3.1 °C 1018.8 hPa Calm     48 % 0.0 mm 0.0 W/m2 CLR
20:29 13.9 °C 4.4 °C 1018.8 hPa Calm     53 % 0.0 mm 0.0 W/m2 CLR
20:34 13.9 °C 3.9 °C 1018.8 hPa Calm     51 % 0.0 mm 0.0 W/m2 CLR
20:39 15.0 °C 5.5 °C 1018.8 hPa Calm     53 % 0.0 mm 0.0 W/m2 CLR
20:44 14.4 °C 4.4 °C 1019.2 hPa Calm     51 % 0.0 mm 0.0 W/m2 CLR
20:49 14.4 °C 5.8 °C 1018.8 hPa Calm     56 % 0.0 mm 0.0 W/m2 CLR
20:54 13.9 °C 5.8 °C 1019.2 hPa Calm     58 % 0.0 mm 0.0 W/m2 CLR
20:59 13.9 °C 5.2 °C 1019.2 hPa Calm     56 % 0.0 mm 0.0 W/m2 CLR
21:04 13.3 °C 5.0 °C 1019.2 hPa Calm     57 % 0.0 mm 0.0 W/m2 CLR
21:09 13.3 °C 5.2 °C 1019.5 hPa Calm     58 % 0.0 mm 0.0 W/m2 CLR
21:14 13.3 °C 5.7 °C 1019.2 hPa Calm     60 % 0.0 mm 0.0 W/m2 CLR
21:19 12.8 °C 5.4 °C 1019.5 hPa Calm     61 % 0.0 mm 0.0 W/m2 CLR
21:24 12.8 °C 5.4 °C 1019.2 hPa Calm     61 % 0.0 mm 0.0 W/m2 CLR
21:29 12.8 °C 5.4 °C 1019.2 hPa Calm     61 % 0.0 mm 0.0 W/m2 CLR
21:34 12.8 °C 5.4 °C 1019.5 hPa Calm     61 % 0.0 mm 0.0 W/m2 CLR
21:39 12.8 °C 5.7 °C 1019.5 hPa Calm     62 % 0.0 mm 0.0 W/m2 CLR
21:44 12.2 °C 5.2 °C 1019.9 hPa Calm     62 % 0.0 mm 0.0 W/m2 CLR
21:49 12.2 °C 5.4 °C 1019.9 hPa Calm     63 % 0.0 mm 0.0 W/m2 CLR
21:54 12.2 °C 5.6 °C 1019.9 hPa Calm     64 % 0.0 mm 0.0 W/m2 CLR
21:59 12.2 °C 5.8 °C 1019.9 hPa Calm     65 % 0.0 mm 0.0 W/m2 CLR
22:04 12.2 °C 5.4 °C 1019.9 hPa Calm     63 % 0.0 mm 0.0 W/m2 CLR
22:09 12.2 °C 5.4 °C 1019.9 hPa Calm     63 % 0.0 mm 0.0 W/m2 CLR
22:14 12.2 °C 5.6 °C 1019.9 hPa Calm     64 % 0.0 mm 0.0 W/m2 CLR
22:19 12.2 °C 5.6 °C 1019.9 hPa Calm     64 % 0.0 mm 0.0 W/m2 CLR
22:24 12.2 °C 5.2 °C 1019.9 hPa Calm     62 % 0.0 mm 0.0 W/m2 CLR
22:29 11.7 °C 4.6 °C 1020.2 hPa Calm     62 % 0.0 mm 0.0 W/m2 CLR
22:34 11.7 °C 5.1 °C 1020.2 hPa Calm     64 % 0.0 mm 0.0 W/m2 CLR
22:39 11.1 °C 4.8 °C 1020.2 hPa Calm     65 % 0.0 mm 0.0 W/m2 CLR
22:44 11.1 °C 4.8 °C 1020.2 hPa Calm     65 % 0.0 mm 0.0 W/m2 CLR
22:49 11.1 °C 5.0 °C 1019.9 hPa Calm     66 % 0.0 mm 0.0 W/m2 CLR
22:54 10.6 °C 4.4 °C 1019.9 hPa Calm     66 % 0.0 mm 0.0 W/m2 CLR
22:59 10.6 °C 4.2 °C 1020.2 hPa Calm     65 % 0.0 mm 0.0 W/m2 CLR
23:04 10.6 °C 4.7 °C 1020.2 hPa Calm     67 % 0.0 mm 0.0 W/m2 CLR
23:09 10.6 °C 4.7 °C 1020.2 hPa Calm     67 % 0.0 mm 0.0 W/m2 CLR
23:14 10.6 °C 4.7 °C 1020.2 hPa Calm     67 % 0.0 mm 0.0 W/m2 CLR
23:19 10.6 °C 4.9 °C 1020.2 hPa Calm     68 % 0.0 mm 0.0 W/m2 CLR
23:24 10.6 °C 4.9 °C 1020.2 hPa Calm     68 % 0.0 mm 0.0 W/m2 CLR
23:29 10.6 °C 4.9 °C 1020.2 hPa Calm     68 % 0.0 mm 0.0 W/m2 CLR
23:34 11.1 °C 5.6 °C 1020.2 hPa Calm     69 % 0.0 mm 0.0 W/m2 CLR
23:39 11.1 °C 5.6 °C 1020.2 hPa Calm     69 % 0.0 mm 0.0 W/m2 CLR
23:44 11.1 °C 5.4 °C 1020.2 hPa Calm     68 % 0.0 mm 0.0 W/m2 CLR
23:49 11.1 °C 5.2 °C 1020.2 hPa Calm     67 % 0.0 mm 0.0 W/m2 CLR
23:54 11.1 °C 5.2 °C 1020.2 hPa Calm     67 % 0.0 mm 0.0 W/m2 CLR
23:59 10.6 °C 4.7 °C 1020.2 hPa Calm     67 % 0.0 mm 0.0 W/m2 CLR
Lo Temps de Massalio
Compliments of Weather Underground - 1.25 mb